Terminal Aerodrome Forecast
Issued by NWS

Home | Current Version | Previous Version | Text Only | Print | Product List | Glossary On
Versions: 1 2 3 4 5 6 7 8 9 10 11 12 13 14
309
FTUS43 KGRR 291140
TAFLAN
TAF
KLAN 291140Z 2912/3012 19009KT P6SM BKN070
     FM291400 23012G22KT P6SM VCSH BKN060
     FM291800 24013G23KT P6SM VCTS BKN050CB
     FM300100 25012KT P6SM BKN100=

USA.gov is the U.S. government's official web portal to all federal, state and local government web resources and services.